createdAt,value
2022-12-08T00:01:49.566Z,93.71
2022-12-08T00:04:16.453Z,93.06
2022-12-08T00:06:44.076Z,92.39
2022-12-08T00:09:17.653Z,92.23
2022-12-08T00:11:44.099Z,92.69
2022-12-08T00:14:10.741Z,92.66
2022-12-08T00:16:37.197Z,92.50
2022-12-08T00:19:03.617Z,92.89
2022-12-08T00:21:30.060Z,92.82
2022-12-08T00:23:56.843Z,92.25
2022-12-08T00:26:23.988Z,92.46
2022-12-08T00:28:50.373Z,92.67
2022-12-08T00:31:16.993Z,92.56
2022-12-08T00:33:43.642Z,92.89
2022-12-08T00:36:12.951Z,92.75
2022-12-08T00:38:40.365Z,92.80
2022-12-08T00:41:15.635Z,93.52
2022-12-08T00:43:42.477Z,93.16
2022-12-08T00:46:10.486Z,92.96
2022-12-08T00:48:37.140Z,93.31
2022-12-08T00:51:03.999Z,93.15
2022-12-08T00:53:31.159Z,93.08
2022-12-08T00:55:57.649Z,93.18
2022-12-08T00:58:24.079Z,93.12
2022-12-08T01:00:51.726Z,93.65
2022-12-08T01:03:18.291Z,92.95
2022-12-08T01:05:44.759Z,93.41
2022-12-08T01:08:11.282Z,94.09
2022-12-08T01:10:38.481Z,93.49
2022-12-08T01:13:05.136Z,93.23
2022-12-08T01:15:31.745Z,93.39
2022-12-08T01:17:58.096Z,92.70
2022-12-08T01:20:24.944Z,92.75
2022-12-08T01:22:51.393Z,93.89
2022-12-08T01:25:17.838Z,93.32
2022-12-08T01:27:44.388Z,93.66
2022-12-08T01:30:11.198Z,93.72
2022-12-08T01:32:37.624Z,93.97
2022-12-08T01:35:04.396Z,93.68
2022-12-08T01:37:30.769Z,93.81
2022-12-08T01:39:57.329Z,93.08
2022-12-08T01:42:25.479Z,93.76
2022-12-08T01:44:58.696Z,93.17
2022-12-08T01:47:34.630Z,92.78
2022-12-08T01:50:01.754Z,93.12
2022-12-08T01:53:00.847Z,93.43
2022-12-08T01:55:39.175Z,93.12
2022-12-08T01:58:13.984Z,93.41
2022-12-08T02:00:40.433Z,94.04
2022-12-08T02:03:13.339Z,94.65
2022-12-08T02:05:40.460Z,94.52
2022-12-08T02:08:09.742Z,93.96
2022-12-08T02:10:39.350Z,94.00
2022-12-08T02:13:09.002Z,94.78
2022-12-08T02:15:44.870Z,94.88
2022-12-08T02:18:44.786Z,94.90
2022-12-08T02:21:29.323Z,94.12
2022-12-08T02:24:10.827Z,94.95
2022-12-08T02:26:49.787Z,94.39
2022-12-08T02:29:50.507Z,94.51
2022-12-08T02:32:25.997Z,96.13
2022-12-08T02:35:13.027Z,95.53
2022-12-08T02:37:47.963Z,95.81
2022-12-08T02:40:28.302Z,96.03
2022-12-08T02:43:03.553Z,96.15
2022-12-08T02:45:44.383Z,95.46
2022-12-08T02:48:11.136Z,95.88
2022-12-08T02:50:39.616Z,95.99
2022-12-08T02:55:43.032Z,95.32
2022-12-08T02:58:28.679Z,95.41
2022-12-08T03:01:22.452Z,95.52
2022-12-08T03:04:08.637Z,95.59
2022-12-08T03:06:56.517Z,95.27
2022-12-08T03:09:53.475Z,95.37
2022-12-08T03:12:33.517Z,95.20
2022-12-08T03:15:06.877Z,94.55
2022-12-08T03:17:34.198Z,94.72
2022-12-08T03:20:07.569Z,94.36
2022-12-08T03:22:34.498Z,93.91
2022-12-08T03:25:01.571Z,94.38
2022-12-08T03:27:31.018Z,94.39
2022-12-08T03:29:59.241Z,94.75
2022-12-08T03:32:28.688Z,94.56
2022-12-08T03:34:57.769Z,95.08
2022-12-08T03:37:24.600Z,95.13
2022-12-08T03:39:51.267Z,95.06
2022-12-08T03:42:17.616Z,95.60
2022-12-08T03:44:44.015Z,94.74
2022-12-08T03:47:10.353Z,94.46
2022-12-08T03:49:36.780Z,92.74
2022-12-08T03:52:03.210Z,91.65
2022-12-08T03:54:29.566Z,92.30
2022-12-08T03:56:56.499Z,92.82
2022-12-08T03:59:23.220Z,92.77
2022-12-08T04:01:49.655Z,92.60
2022-12-08T04:04:16.186Z,93.52
2022-12-08T04:06:42.612Z,93.91
2022-12-08T04:09:09.045Z,94.74
2022-12-08T04:11:35.529Z,93.92
2022-12-08T04:14:01.907Z,93.20
2022-12-08T04:16:28.358Z,94.37
2022-12-08T04:18:55.293Z,95.21
2022-12-08T04:21:21.785Z,94.87
2022-12-08T04:23:48.249Z,94.77
2022-12-08T04:26:14.967Z,95.05
2022-12-08T04:28:41.557Z,95.28
2022-12-08T04:31:07.920Z,95.02
2022-12-08T04:33:34.490Z,95.97
2022-12-08T04:36:01.912Z,95.62
2022-12-08T04:38:28.291Z,96.17
2022-12-08T04:40:54.701Z,96.28
2022-12-08T04:43:21.342Z,96.39
2022-12-08T04:45:47.706Z,96.63
2022-12-08T04:48:14.268Z,95.89
2022-12-08T04:50:41.940Z,95.97
2022-12-08T04:53:09.356Z,96.80
2022-12-08T04:55:39.200Z,96.62
2022-12-08T04:58:06.892Z,96.23
2022-12-08T05:00:33.502Z,95.35
2022-12-08T05:03:00.155Z,94.48
2022-12-08T05:05:26.785Z,95.30
2022-12-08T05:07:53.213Z,95.25
2022-12-08T05:10:20.266Z,94.71
2022-12-08T05:12:46.612Z,95.15
2022-12-08T05:15:13.003Z,95.34
2022-12-08T05:17:39.449Z,96.13
2022-12-08T05:20:06.796Z,96.29
2022-12-08T05:22:33.939Z,95.40
2022-12-08T05:25:00.578Z,94.65
2022-12-08T05:27:27.190Z,94.85
2022-12-08T05:29:53.757Z,94.59
2022-12-08T05:32:20.340Z,95.26
2022-12-08T05:34:46.794Z,94.76
2022-12-08T05:37:18.997Z,94.83
2022-12-08T05:39:45.543Z,95.36
2022-12-08T05:42:14.697Z,94.80
2022-12-08T05:44:41.885Z,94.78
2022-12-08T05:47:08.323Z,95.79
2022-12-08T05:49:37.820Z,95.78
2022-12-08T05:52:06.235Z,95.20
2022-12-08T05:54:32.748Z,95.76
2022-12-08T05:56:59.785Z,95.37
2022-12-08T05:59:28.519Z,94.55
2022-12-08T06:01:55.121Z,94.46
2022-12-08T06:04:21.867Z,95.31
2022-12-08T06:06:50.068Z,94.97
2022-12-08T06:09:16.716Z,95.37
2022-12-08T06:11:43.566Z,95.28
2022-12-08T06:14:11.952Z,94.88
2022-12-08T06:16:38.876Z,95.32
2022-12-08T06:19:05.344Z,94.93
2022-12-08T06:21:32.014Z,94.60
2022-12-08T06:23:59.818Z,94.80
2022-12-08T06:26:26.483Z,94.79
2022-12-08T06:28:54.388Z,94.89
2022-12-08T06:31:25.873Z,93.18
2022-12-08T06:33:55.643Z,93.65
2022-12-08T06:36:25.320Z,94.93
2022-12-08T06:38:51.979Z,94.53
2022-12-08T06:41:19.047Z,94.62
2022-12-08T06:43:45.623Z,94.55
2022-12-08T06:46:15.981Z,94.33
2022-12-08T06:48:43.247Z,95.11
2022-12-08T06:51:15.349Z,94.30
2022-12-08T06:53:42.928Z,95.24
2022-12-08T06:56:10.461Z,95.18
2022-12-08T06:58:36.866Z,94.40
2022-12-08T07:01:13.593Z,95.05
2022-12-08T07:03:41.655Z,94.38
2022-12-08T07:06:08.209Z,93.56
2022-12-08T07:08:35.157Z,94.30
2022-12-08T07:11:16.581Z,93.97
2022-12-08T07:13:46.076Z,94.55
2022-12-08T07:16:13.185Z,94.50
2022-12-08T07:18:39.694Z,94.34
2022-12-08T07:21:09.474Z,95.45
2022-12-08T07:23:36.516Z,94.72
2022-12-08T07:26:06.572Z,95.37
2022-12-08T07:28:34.448Z,95.41
2022-12-08T07:31:00.942Z,95.72
2022-12-08T07:33:28.397Z,96.16
2022-12-08T07:36:01.711Z,95.92
2022-12-08T07:38:29.119Z,95.45
2022-12-08T07:40:55.542Z,95.55
2022-12-08T07:43:22.896Z,94.78
2022-12-08T07:45:50.423Z,94.81
2022-12-08T07:48:17.148Z,94.64
2022-12-08T07:50:44.343Z,94.68
2022-12-08T07:53:10.928Z,95.02
2022-12-08T07:55:44.314Z,94.52
2022-12-08T07:58:11.666Z,95.28
2022-12-08T08:00:38.365Z,95.18
2022-12-08T08:03:04.922Z,95.05
2022-12-08T08:05:31.374Z,95.58
2022-12-08T08:07:57.849Z,94.62
2022-12-08T08:10:24.327Z,94.46
2022-12-08T08:12:50.772Z,94.67
2022-12-08T08:15:17.165Z,94.31
2022-12-08T08:17:43.746Z,94.08
2022-12-08T08:20:10.647Z,94.40
2022-12-08T08:22:37.014Z,94.84
2022-12-08T08:25:03.869Z,95.41
2022-12-08T08:27:30.326Z,94.47
2022-12-08T08:29:56.654Z,95.63
2022-12-08T08:32:23.042Z,94.81
2022-12-08T08:34:49.686Z,94.23
2022-12-08T08:37:16.136Z,94.50
2022-12-08T08:39:42.501Z,94.82
2022-12-08T08:42:08.938Z,94.91
2022-12-08T08:44:35.355Z,94.92
2022-12-08T08:47:01.678Z,94.40
2022-12-08T08:49:29.432Z,94.24
2022-12-08T08:51:55.878Z,93.81
2022-12-08T08:54:23.177Z,93.56
2022-12-08T08:56:49.626Z,93.69
2022-12-08T08:59:15.968Z,94.30
2022-12-08T09:01:43.113Z,93.75
2022-12-08T09:04:10.111Z,93.83
2022-12-08T09:06:39.922Z,94.02
2022-12-08T09:09:06.406Z,93.34
2022-12-08T09:11:33.246Z,93.45
2022-12-08T09:13:59.855Z,94.35
2022-12-08T09:16:26.514Z,94.28
2022-12-08T09:18:53.234Z,94.70
2022-12-08T09:21:22.942Z,93.74
2022-12-08T09:23:50.994Z,94.24
2022-12-08T09:26:17.568Z,95.10
2022-12-08T09:28:44.337Z,95.11
2022-12-08T09:31:12.066Z,95.23
2022-12-08T09:33:38.619Z,95.67
2022-12-08T09:36:05.837Z,94.73
2022-12-08T09:38:32.358Z,94.06
2022-12-08T09:41:00.619Z,92.99
2022-12-08T09:43:45.356Z,93.68
2022-12-08T09:46:15.291Z,93.88
2022-12-08T09:48:52.107Z,94.12
2022-12-08T09:51:20.018Z,93.21
2022-12-08T09:53:50.957Z,93.75
2022-12-08T09:56:19.498Z,93.89
2022-12-08T09:58:52.095Z,94.19
2022-12-08T10:01:21.538Z,93.23
2022-12-08T10:03:48.612Z,94.09
2022-12-08T10:06:51.908Z,93.12
2022-12-08T10:09:54.847Z,93.02
2022-12-08T10:12:30.668Z,93.17
2022-12-08T10:15:34.805Z,92.99
2022-12-08T10:18:04.072Z,93.85
2022-12-08T10:20:40.764Z,94.03
2022-12-08T10:23:13.254Z,93.57
2022-12-08T10:25:48.189Z,93.74
2022-12-08T10:28:15.208Z,93.54
2022-12-08T10:30:42.402Z,93.20
2022-12-08T10:33:17.175Z,92.84
2022-12-08T10:35:52.771Z,92.36
2022-12-08T10:38:33.544Z,92.36
2022-12-08T10:41:03.824Z,91.48
2022-12-08T10:43:31.882Z,91.59
2022-12-08T10:46:10.893Z,91.82
2022-12-08T10:48:37.234Z,91.43
2022-12-08T10:51:03.675Z,91.79
2022-12-08T10:53:32.604Z,92.84
2022-12-08T10:56:02.170Z,90.92
2022-12-08T10:58:34.863Z,91.44
2022-12-08T11:01:21.527Z,90.52
2022-12-08T11:03:57.243Z,92.51
2022-12-08T11:06:32.772Z,91.75
2022-12-08T11:09:02.025Z,92.02
2022-12-08T11:11:50.147Z,91.80
2022-12-08T11:14:26.420Z,91.98
2022-12-08T11:16:56.205Z,91.70
2022-12-08T11:19:26.363Z,92.41
2022-12-08T11:21:52.762Z,92.59
2022-12-08T11:24:32.254Z,93.28
2022-12-08T11:27:04.627Z,92.36
2022-12-08T11:29:33.296Z,91.51
2022-12-08T11:32:04.576Z,92.18
2022-12-08T11:34:42.780Z,91.40
2022-12-08T11:37:18.901Z,92.32
2022-12-08T11:39:50.894Z,93.10
2022-12-08T11:42:22.014Z,93.70
2022-12-08T11:44:57.675Z,93.91
2022-12-08T11:47:48.982Z,94.95
2022-12-08T11:50:22.906Z,94.44
2022-12-08T11:52:51.897Z,94.61
2022-12-08T11:55:18.587Z,94.32
2022-12-08T11:57:46.082Z,94.15
2022-12-08T12:00:16.074Z,94.79
2022-12-08T12:02:48.772Z,94.88
2022-12-08T12:06:13.097Z,94.01
2022-12-08T12:09:04.805Z,94.37
2022-12-08T12:11:46.774Z,93.93
2022-12-08T12:14:22.204Z,93.83
2022-12-08T12:17:03.966Z,93.07
2022-12-08T12:19:37.128Z,93.39
2022-12-08T12:22:15.100Z,92.58
2022-12-08T12:24:45.622Z,92.10
2022-12-08T12:27:24.617Z,92.08
2022-12-08T12:29:57.518Z,92.91
2022-12-08T12:32:25.162Z,91.65
2022-12-08T12:34:58.669Z,90.73
2022-12-08T12:37:36.907Z,88.31
2022-12-08T12:40:11.943Z,85.05
2022-12-08T12:42:47.708Z,84.81
2022-12-08T12:45:16.785Z,85.69
2022-12-08T12:48:12.791Z,85.13
2022-12-08T12:50:52.476Z,83.47
2022-12-08T12:53:18.828Z,80.93
2022-12-08T12:55:56.841Z,79.52
2022-12-08T12:58:29.324Z,80.17
2022-12-08T13:01:11.027Z,80.77
2022-12-08T13:03:40.826Z,81.13
2022-12-08T13:06:14.148Z,84.34
2022-12-08T13:08:50.780Z,83.76
2022-12-08T13:11:17.237Z,80.34
2022-12-08T13:13:56.807Z,84.37
2022-12-08T13:16:26.249Z,86.63
2022-12-08T13:18:57.887Z,86.78
2022-12-08T13:21:31.677Z,83.31
2022-12-08T13:24:10.162Z,81.16
2022-12-08T13:26:47.685Z,81.59
2022-12-08T13:29:25.473Z,81.94
2022-12-08T13:31:59.763Z,83.07
2022-12-08T13:34:51.690Z,87.60
2022-12-08T13:37:54.520Z,90.80
2022-12-08T13:40:25.487Z,91.22
2022-12-08T13:43:09.998Z,90.42
2022-12-08T13:46:52.246Z,90.07
2022-12-08T13:49:36.534Z,90.67
2022-12-08T13:55:35.483Z,90.58
2022-12-08T13:57:34.192Z,90.45
2022-12-08T14:00:15.306Z,89.59
2022-12-08T14:02:47.850Z,88.56
2022-12-08T14:05:18.498Z,90.27
2022-12-08T14:07:47.608Z,88.93
2022-12-08T14:10:19.644Z,90.16
2022-12-08T14:12:52.140Z,89.51
2022-12-08T14:15:19.428Z,89.69
2022-12-08T14:17:54.265Z,89.20
2022-12-08T14:21:18.903Z,89.78
2022-12-08T14:23:29.304Z,89.59
2022-12-08T14:25:56.423Z,90.00
2022-12-08T14:28:22.958Z,91.18
2022-12-08T14:30:49.709Z,91.80
2022-12-08T14:33:16.757Z,91.02
2022-12-08T14:35:49.136Z,91.35
2022-12-08T14:38:18.017Z,92.27
2022-12-08T14:40:46.324Z,92.29
2022-12-08T14:43:16.762Z,91.45
2022-12-08T14:45:43.397Z,91.76
2022-12-08T14:48:40.230Z,91.64
2022-12-08T14:51:14.673Z,91.98
2022-12-08T14:54:08.442Z,91.57
2022-12-08T14:56:56.272Z,92.00
2022-12-08T14:59:31.665Z,91.81
2022-12-08T15:02:12.424Z,92.06
2022-12-08T15:04:45.411Z,92.84
2022-12-08T15:07:35.846Z,92.85
2022-12-08T15:10:17.769Z,93.09
2022-12-08T15:13:01.609Z,92.81
2022-12-08T15:15:29.779Z,93.69
2022-12-08T15:18:12.178Z,93.74
2022-12-08T15:20:38.470Z,93.62
2022-12-08T15:23:05.586Z,92.83
2022-12-08T15:25:33.173Z,93.74
2022-12-08T15:28:02.325Z,93.80
2022-12-08T15:30:28.797Z,94.11
2022-12-08T15:32:55.359Z,93.46
2022-12-08T15:35:22.010Z,94.74
2022-12-08T15:37:48.522Z,95.20
2022-12-08T15:40:20.948Z,94.62
2022-12-08T15:42:47.707Z,94.14
2022-12-08T15:45:15.317Z,95.38
2022-12-08T15:47:43.395Z,94.65
2022-12-08T15:50:21.809Z,94.68
2022-12-08T15:52:49.505Z,94.42
2022-12-08T15:55:19.625Z,93.34
2022-12-08T15:58:51.847Z,93.36
2022-12-08T16:00:54.490Z,94.22
2022-12-08T16:09:11.771Z,95.07
2022-12-08T16:12:05.383Z,94.31
2022-12-08T16:15:23.401Z,94.63
2022-12-08T16:17:16.614Z,94.67
2022-12-08T16:19:43.302Z,94.38
2022-12-08T16:25:24.451Z,94.49
2022-12-08T16:28:12.404Z,94.55
2022-12-08T16:30:40.911Z,95.09
2022-12-08T16:33:07.705Z,95.42
2022-12-08T16:35:34.040Z,95.23
2022-12-08T16:38:00.664Z,95.70
2022-12-08T16:40:27.205Z,95.03
2022-12-08T16:42:53.759Z,95.53
2022-12-08T16:45:29.052Z,94.90
2022-12-08T16:48:00.486Z,94.96
2022-12-08T16:50:30.086Z,94.88
2022-12-08T16:52:58.970Z,94.77
2022-12-08T16:55:26.144Z,95.05
2022-12-08T16:57:52.902Z,94.90
2022-12-08T17:00:22.393Z,95.20
2022-12-08T17:02:49.103Z,95.11
2022-12-08T17:05:17.994Z,95.64
2022-12-08T17:07:46.594Z,95.74
2022-12-08T17:10:16.902Z,95.02
2022-12-08T17:12:44.015Z,95.55
2022-12-08T17:15:13.943Z,95.00
2022-12-08T17:17:40.807Z,94.77
2022-12-08T17:20:11.389Z,94.65
2022-12-08T17:22:38.503Z,95.00
2022-12-08T17:25:06.185Z,94.89
2022-12-08T17:27:32.815Z,95.21
2022-12-08T17:29:59.444Z,95.02
2022-12-08T17:32:26.081Z,95.37
2022-12-08T17:34:52.872Z,95.84
2022-12-08T17:37:19.550Z,95.23
2022-12-08T17:39:45.930Z,95.33
2022-12-08T17:42:12.327Z,95.52
2022-12-08T17:44:38.786Z,95.94
2022-12-08T17:47:05.572Z,96.11
2022-12-08T17:49:32.759Z,96.57
2022-12-08T17:52:02.565Z,96.65
2022-12-08T17:54:30.024Z,97.16
2022-12-08T17:56:56.788Z,96.76
2022-12-08T17:59:23.923Z,96.94
2022-12-08T18:01:52.796Z,97.37
2022-12-08T18:04:19.640Z,97.32
2022-12-08T18:06:46.139Z,97.42
2022-12-08T18:09:13.573Z,97.50
2022-12-08T18:11:40.191Z,97.35
2022-12-08T18:14:08.251Z,97.09
2022-12-08T18:16:35.792Z,96.50
2022-12-08T18:19:02.139Z,96.33
2022-12-08T18:21:28.658Z,96.59
2022-12-08T18:23:55.066Z,96.55
2022-12-08T18:26:21.812Z,96.25
2022-12-08T18:28:48.441Z,96.50
2022-12-08T18:31:18.583Z,96.76
2022-12-08T18:33:47.197Z,97.01
2022-12-08T18:36:16.697Z,97.13
2022-12-08T18:38:43.585Z,96.90
2022-12-08T18:41:16.235Z,97.14
2022-12-08T18:43:43.064Z,97.01
2022-12-08T18:46:12.466Z,97.55
2022-12-08T18:48:44.409Z,97.66
2022-12-08T18:51:16.793Z,97.45
2022-12-08T18:53:44.547Z,97.21
2022-12-08T18:56:32.404Z,96.95
2022-12-08T18:59:04.771Z,97.47
2022-12-08T19:01:36.939Z,97.23
2022-12-08T19:06:53.503Z,97.63
2022-12-08T19:09:20.510Z,97.80
2022-12-08T19:11:47.050Z,97.80
2022-12-08T19:14:14.529Z,97.67
2022-12-08T19:16:41.149Z,97.42
2022-12-08T19:19:07.604Z,96.71
2022-12-08T19:21:38.255Z,97.03
2022-12-08T19:24:08.569Z,96.87
2022-12-08T19:26:39.603Z,96.63
2022-12-08T19:29:06.165Z,97.22
2022-12-08T19:31:33.811Z,96.46
2022-12-08T19:34:00.264Z,96.62
2022-12-08T19:36:26.642Z,96.68
2022-12-08T19:38:53.798Z,97.08
2022-12-08T19:41:20.546Z,96.39
2022-12-08T19:43:46.954Z,96.66
2022-12-08T19:46:13.769Z,97.10
2022-12-08T19:48:40.376Z,96.53
2022-12-08T19:51:06.912Z,97.38
2022-12-08T19:53:33.236Z,96.93
2022-12-08T19:55:59.572Z,96.80
2022-12-08T19:58:26.116Z,96.90
2022-12-08T20:00:52.649Z,97.12
2022-12-08T20:03:21.009Z,96.52
2022-12-08T20:05:49.286Z,96.32
2022-12-08T20:08:18.905Z,96.05
2022-12-08T20:10:46.810Z,95.73
2022-12-08T20:13:15.510Z,96.44
2022-12-08T20:15:43.407Z,96.46
2022-12-08T20:18:14.047Z,96.44
2022-12-08T20:20:42.023Z,95.88
2022-12-08T20:23:08.982Z,95.15
2022-12-08T20:25:38.392Z,95.38
2022-12-08T20:28:05.261Z,95.24
2022-12-08T20:30:32.165Z,95.64
2022-12-08T20:32:58.598Z,96.33
2022-12-08T20:35:25.085Z,95.89
2022-12-08T20:37:51.460Z,95.93
2022-12-08T20:40:17.860Z,95.74
2022-12-08T20:42:44.274Z,95.39
2022-12-08T20:45:10.765Z,95.68
2022-12-08T20:47:37.951Z,95.37
2022-12-08T20:50:08.127Z,95.94
2022-12-08T20:52:35.115Z,95.72
2022-12-08T20:55:01.525Z,96.16
2022-12-08T20:57:28.097Z,95.84
2022-12-08T20:59:54.718Z,95.48
2022-12-08T21:02:21.213Z,95.46
2022-12-08T21:04:48.135Z,95.39
2022-12-08T21:07:14.708Z,95.12
2022-12-08T21:09:41.417Z,95.12
2022-12-08T21:12:08.260Z,95.12
2022-12-08T21:14:34.859Z,94.84
2022-12-08T21:17:01.409Z,95.19
2022-12-08T21:19:28.010Z,95.49
2022-12-08T21:21:54.534Z,95.93
2022-12-08T21:24:21.340Z,95.69
2022-12-08T21:26:47.763Z,95.35
2022-12-08T21:29:14.658Z,95.73
2022-12-08T21:31:41.288Z,96.02
2022-12-08T21:34:08.273Z,96.69
2022-12-08T21:36:34.759Z,96.03
2022-12-08T21:39:01.423Z,95.94
2022-12-08T21:41:28.947Z,96.33
2022-12-08T21:43:55.392Z,96.11
2022-12-08T21:46:21.928Z,96.68
2022-12-08T21:48:48.842Z,96.27
2022-12-08T21:51:15.487Z,96.50
2022-12-08T21:53:42.046Z,96.94
2022-12-08T21:56:09.513Z,96.72
2022-12-08T21:58:36.738Z,96.27
2022-12-08T22:01:08.077Z,96.54
2022-12-08T22:03:35.679Z,96.47
2022-12-08T22:06:11.488Z,96.72
2022-12-08T22:08:38.333Z,96.38
2022-12-08T22:11:06.068Z,96.87
2022-12-08T22:13:38.336Z,95.99
2022-12-08T22:16:07.469Z,96.34
2022-12-08T22:18:35.498Z,96.23
2022-12-08T22:21:06.971Z,96.37
2022-12-08T22:23:33.408Z,97.22
2022-12-08T22:26:01.689Z,96.70
2022-12-08T22:28:31.855Z,97.10
2022-12-08T22:30:58.501Z,96.71
2022-12-08T22:33:24.853Z,97.23
2022-12-08T22:36:03.418Z,97.11
2022-12-08T22:38:33.658Z,97.22
2022-12-08T22:41:00.155Z,97.02
2022-12-08T22:43:26.626Z,97.08
2022-12-08T22:45:53.187Z,96.97
2022-12-08T22:48:19.656Z,96.65
2022-12-08T22:50:46.302Z,97.20
2022-12-08T22:53:12.866Z,97.57
2022-12-08T22:55:43.316Z,97.36
2022-12-08T22:58:13.105Z,96.73
2022-12-08T23:00:40.125Z,96.73
2022-12-08T23:03:06.909Z,97.18
2022-12-08T23:05:35.025Z,97.10
2022-12-08T23:08:02.965Z,97.22
2022-12-08T23:10:29.512Z,97.32
2022-12-08T23:13:00.803Z,97.16
2022-12-08T23:15:31.823Z,97.67
2022-12-08T23:17:58.299Z,96.90
2022-12-08T23:20:25.315Z,96.95
2022-12-08T23:22:51.798Z,97.89
2022-12-08T23:25:18.545Z,97.06
2022-12-08T23:27:46.128Z,96.72
2022-12-08T23:30:13.579Z,96.99
2022-12-08T23:32:40.977Z,96.70
2022-12-08T23:35:08.501Z,97.25
2022-12-08T23:37:35.278Z,96.45
2022-12-08T23:40:02.054Z,97.13
2022-12-08T23:42:29.551Z,97.10
2022-12-08T23:44:56.162Z,96.21
2022-12-08T23:47:23.422Z,96.69
2022-12-08T23:49:49.910Z,95.90
2022-12-08T23:52:16.516Z,96.17
2022-12-08T23:54:42.968Z,96.00
2022-12-08T23:57:09.287Z,95.75
2022-12-08T23:59:35.896Z,96.71
